sensor_id;sensor_type;location;lat;lon;timestamp;P1;durP1;ratioP1;P2;durP2;ratioP2
29634;SDS011;16557;54.762;56.068;2022-08-01T00:00:35;25.10;;;11.78;;
29634;SDS011;16557;54.762;56.068;2022-08-01T00:03:04;23.67;;;11.65;;
29634;SDS011;16557;54.762;56.068;2022-08-01T00:05:34;21.87;;;11.57;;
29634;SDS011;16557;54.762;56.068;2022-08-01T00:08:03;22.60;;;12.33;;
29634;SDS011;16557;54.762;56.068;2022-08-01T00:10:32;21.02;;;11.40;;
29634;SDS011;16557;54.762;56.068;2022-08-01T00:13:02;23.42;;;12.40;;
29634;SDS011;16557;54.762;56.068;2022-08-01T00:15:31;22.00;;;12.40;;
29634;SDS011;16557;54.762;56.068;2022-08-01T00:18:01;21.30;;;12.50;;
29634;SDS011;16557;54.762;56.068;2022-08-01T00:20:30;20.75;;;12.68;;
29634;SDS011;16557;54.762;56.068;2022-08-01T00:23:01;22.22;;;12.23;;
29634;SDS011;16557;54.762;56.068;2022-08-01T00:25:31;23.55;;;12.00;;
29634;SDS011;16557;54.762;56.068;2022-08-01T00:28:00;28.05;;;12.35;;
29634;SDS011;16557;54.762;56.068;2022-08-01T00:30:30;19.98;;;12.95;;
29634;SDS011;16557;54.762;56.068;2022-08-01T00:32:59;22.65;;;12.43;;
29634;SDS011;16557;54.762;56.068;2022-08-01T00:35:29;19.35;;;12.25;;
29634;SDS011;16557;54.762;56.068;2022-08-01T00:37:58;29.85;;;12.82;;
29634;SDS011;16557;54.762;56.068;2022-08-01T00:40:27;18.40;;;11.45;;
29634;SDS011;16557;54.762;56.068;2022-08-01T00:42:57;16.10;;;12.35;;
29634;SDS011;16557;54.762;56.068;2022-08-01T00:45:26;19.27;;;11.78;;
29634;SDS011;16557;54.762;56.068;2022-08-01T00:47:55;17.87;;;11.57;;
29634;SDS011;16557;54.762;56.068;2022-08-01T00:50:25;22.25;;;12.47;;
29634;SDS011;16557;54.762;56.068;2022-08-01T00:52:54;22.17;;;12.33;;
29634;SDS011;16557;54.762;56.068;2022-08-01T00:55:24;23.45;;;12.33;;
29634;SDS011;16557;54.762;56.068;2022-08-01T00:57:54;29.32;;;12.47;;
29634;SDS011;16557;54.762;56.068;2022-08-01T01:00:26;23.22;;;11.85;;
29634;SDS011;16557;54.762;56.068;2022-08-01T01:02:55;18.65;;;10.98;;
29634;SDS011;16557;54.762;56.068;2022-08-01T01:05:24;20.85;;;12.23;;
29634;SDS011;16557;54.762;56.068;2022-08-01T01:07:56;21.50;;;12.85;;
29634;SDS011;16557;54.762;56.068;2022-08-01T01:10:40;20.77;;;12.65;;
29634;SDS011;16557;54.762;56.068;2022-08-01T01:16:15;18.37;;;12.15;;
29634;SDS011;16557;54.762;56.068;2022-08-01T01:18:49;24.80;;;12.18;;
29634;SDS011;16557;54.762;56.068;2022-08-01T01:26:52;18.17;;;12.25;;
29634;SDS011;16557;54.762;56.068;2022-08-01T01:29:41;20.72;;;11.95;;
29634;SDS011;16557;54.762;56.068;2022-08-01T01:32:22;18.62;;;11.55;;
29634;SDS011;16557;54.762;56.068;2022-08-01T01:34:53;24.18;;;12.85;;
29634;SDS011;16557;54.762;56.068;2022-08-01T01:37:23;17.32;;;12.25;;
29634;SDS011;16557;54.762;56.068;2022-08-01T01:39:54;16.87;;;12.55;;
29634;SDS011;16557;54.762;56.068;2022-08-01T01:42:23;18.17;;;11.55;;
29634;SDS011;16557;54.762;56.068;2022-08-01T01:44:56;25.17;;;12.63;;
29634;SDS011;16557;54.762;56.068;2022-08-01T01:47:25;23.32;;;12.55;;
29634;SDS011;16557;54.762;56.068;2022-08-01T01:49:56;38.13;;;22.37;;
29634;SDS011;16557;54.762;56.068;2022-08-01T01:52:28;20.62;;;13.05;;
29634;SDS011;16557;54.762;56.068;2022-08-01T01:54:59;20.60;;;11.73;;
29634;SDS011;16557;54.762;56.068;2022-08-01T01:57:29;29.70;;;13.43;;
29634;SDS011;16557;54.762;56.068;2022-08-01T02:00:00;21.17;;;11.45;;
29634;SDS011;16557;54.762;56.068;2022-08-01T02:02:30;19.92;;;11.75;;
29634;SDS011;16557;54.762;56.068;2022-08-01T02:04:59;22.13;;;13.03;;
29634;SDS011;16557;54.762;56.068;2022-08-01T02:07:30;28.55;;;11.93;;
29634;SDS011;16557;54.762;56.068;2022-08-01T02:10:06;18.67;;;12.20;;
29634;SDS011;16557;54.762;56.068;2022-08-01T02:12:37;25.92;;;12.10;;
29634;SDS011;16557;54.762;56.068;2022-08-01T02:15:09;20.23;;;11.80;;
29634;SDS011;16557;54.762;56.068;2022-08-01T02:17:47;18.87;;;11.28;;
29634;SDS011;16557;54.762;56.068;2022-08-01T02:20:19;21.37;;;11.28;;
29634;SDS011;16557;54.762;56.068;2022-08-01T02:22:49;27.00;;;11.12;;
29634;SDS011;16557;54.762;56.068;2022-08-01T02:25:22;21.02;;;10.95;;
29634;SDS011;16557;54.762;56.068;2022-08-01T02:28:01;18.10;;;11.10;;
29634;SDS011;16557;54.762;56.068;2022-08-01T02:30:36;17.92;;;11.57;;
29634;SDS011;16557;54.762;56.068;2022-08-01T02:33:07;22.25;;;11.30;;
29634;SDS011;16557;54.762;56.068;2022-08-01T02:35:41;25.50;;;11.12;;
29634;SDS011;16557;54.762;56.068;2022-08-01T02:38:11;20.48;;;11.35;;
29634;SDS011;16557;54.762;56.068;2022-08-01T02:40:43;20.75;;;11.03;;
29634;SDS011;16557;54.762;56.068;2022-08-01T02:43:15;19.75;;;11.28;;
29634;SDS011;16557;54.762;56.068;2022-08-01T02:45:47;21.05;;;11.00;;
29634;SDS011;16557;54.762;56.068;2022-08-01T02:48:18;21.07;;;10.93;;
29634;SDS011;16557;54.762;56.068;2022-08-01T02:50:48;23.80;;;11.68;;
29634;SDS011;16557;54.762;56.068;2022-08-01T02:53:19;19.82;;;11.03;;
29634;SDS011;16557;54.762;56.068;2022-08-01T02:55:50;23.45;;;10.15;;
29634;SDS011;16557;54.762;56.068;2022-08-01T02:58:20;12.30;;;7.92;;
29634;SDS011;16557;54.762;56.068;2022-08-01T03:00:51;11.30;;;7.08;;
29634;SDS011;16557;54.762;56.068;2022-08-01T03:03:21;10.60;;;6.33;;
29634;SDS011;16557;54.762;56.068;2022-08-01T03:05:51;13.90;;;6.40;;
29634;SDS011;16557;54.762;56.068;2022-08-01T03:08:21;12.28;;;8.30;;
29634;SDS011;16557;54.762;56.068;2022-08-01T03:10:51;10.50;;;6.78;;
29634;SDS011;16557;54.762;56.068;2022-08-01T03:13:21;11.83;;;6.67;;
29634;SDS011;16557;54.762;56.068;2022-08-01T03:15:51;10.98;;;6.58;;
29634;SDS011;16557;54.762;56.068;2022-08-01T03:18:22;12.45;;;6.47;;
29634;SDS011;16557;54.762;56.068;2022-08-01T03:20:52;12.05;;;6.50;;
29634;SDS011;16557;54.762;56.068;2022-08-01T03:23:23;15.20;;;6.80;;
29634;SDS011;16557;54.762;56.068;2022-08-01T03:25:53;14.05;;;9.58;;
29634;SDS011;16557;54.762;56.068;2022-08-01T03:28:23;16.40;;;6.83;;
29634;SDS011;16557;54.762;56.068;2022-08-01T03:30:53;16.12;;;6.28;;
29634;SDS011;16557;54.762;56.068;2022-08-01T03:33:22;12.65;;;6.45;;
29634;SDS011;16557;54.762;56.068;2022-08-01T03:35:53;14.70;;;6.62;;
29634;SDS011;16557;54.762;56.068;2022-08-01T03:38:23;10.63;;;6.55;;
29634;SDS011;16557;54.762;56.068;2022-08-01T03:40:58;9.53;;;6.60;;
29634;SDS011;16557;54.762;56.068;2022-08-01T03:43:34;11.63;;;7.22;;
29634;SDS011;16557;54.762;56.068;2022-08-01T03:46:10;16.27;;;7.22;;
29634;SDS011;16557;54.762;56.068;2022-08-01T03:48:43;24.45;;;8.40;;
29634;SDS011;16557;54.762;56.068;2022-08-01T03:51:13;31.57;;;10.00;;
29634;SDS011;16557;54.762;56.068;2022-08-01T03:53:43;16.07;;;7.08;;
29634;SDS011;16557;54.762;56.068;2022-08-01T03:56:16;11.00;;;6.42;;
29634;SDS011;16557;54.762;56.068;2022-08-01T03:58:46;23.70;;;7.55;;
29634;SDS011;16557;54.762;56.068;2022-08-01T04:01:16;18.75;;;7.10;;
29634;SDS011;16557;54.762;56.068;2022-08-01T04:03:46;25.48;;;7.37;;
29634;SDS011;16557;54.762;56.068;2022-08-01T04:06:15;20.75;;;7.00;;
29634;SDS011;16557;54.762;56.068;2022-08-01T04:08:45;17.15;;;7.78;;
29634;SDS011;16557;54.762;56.068;2022-08-01T04:11:16;15.05;;;7.03;;
29634;SDS011;16557;54.762;56.068;2022-08-01T04:13:45;15.32;;;7.03;;
29634;SDS011;16557;54.762;56.068;2022-08-01T04:16:14;19.27;;;7.65;;
29634;SDS011;16557;54.762;56.068;2022-08-01T04:18:43;11.70;;;6.97;;
29634;SDS011;16557;54.762;56.068;2022-08-01T04:21:13;13.50;;;7.12;;
29634;SDS011;16557;54.762;56.068;2022-08-01T04:23:43;15.20;;;6.53;;
29634;SDS011;16557;54.762;56.068;2022-08-01T04:26:13;8.40;;;6.60;;
29634;SDS011;16557;54.762;56.068;2022-08-01T04:28:43;13.32;;;6.92;;
29634;SDS011;16557;54.762;56.068;2022-08-01T04:31:13;14.35;;;7.35;;
29634;SDS011;16557;54.762;56.068;2022-08-01T04:33:45;21.37;;;7.20;;
29634;SDS011;16557;54.762;56.068;2022-08-01T04:36:17;16.50;;;7.90;;
29634;SDS011;16557;54.762;56.068;2022-08-01T04:38:50;16.73;;;6.85;;
29634;SDS011;16557;54.762;56.068;2022-08-01T04:41:24;28.65;;;10.18;;
29634;SDS011;16557;54.762;56.068;2022-08-01T04:43:56;19.65;;;7.83;;
29634;SDS011;16557;54.762;56.068;2022-08-01T04:46:36;16.82;;;8.48;;
29634;SDS011;16557;54.762;56.068;2022-08-01T04:49:23;19.70;;;9.93;;
29634;SDS011;16557;54.762;56.068;2022-08-01T04:51:54;18.30;;;9.95;;
29634;SDS011;16557;54.762;56.068;2022-08-01T04:54:29;26.27;;;9.93;;
29634;SDS011;16557;54.762;56.068;2022-08-01T04:57:05;29.18;;;9.95;;
29634;SDS011;16557;54.762;56.068;2022-08-01T04:59:38;21.05;;;10.13;;
29634;SDS011;16557;54.762;56.068;2022-08-01T05:02:14;26.63;;;11.20;;
29634;SDS011;16557;54.762;56.068;2022-08-01T05:04:47;19.70;;;11.10;;
29634;SDS011;16557;54.762;56.068;2022-08-01T05:07:17;27.37;;;11.88;;
29634;SDS011;16557;54.762;56.068;2022-08-01T05:09:46;14.15;;;9.65;;
29634;SDS011;16557;54.762;56.068;2022-08-01T05:12:16;25.95;;;9.88;;
29634;SDS011;16557;54.762;56.068;2022-08-01T05:14:48;26.30;;;10.68;;
29634;SDS011;16557;54.762;56.068;2022-08-01T05:17:25;17.87;;;10.20;;
29634;SDS011;16557;54.762;56.068;2022-08-01T05:19:56;26.93;;;11.28;;
29634;SDS011;16557;54.762;56.068;2022-08-01T05:22:28;20.20;;;10.20;;
29634;SDS011;16557;54.762;56.068;2022-08-01T05:24:59;17.05;;;10.55;;
29634;SDS011;16557;54.762;56.068;2022-08-01T05:27:31;19.60;;;10.60;;
29634;SDS011;16557;54.762;56.068;2022-08-01T05:30:10;20.20;;;10.53;;
29634;SDS011;16557;54.762;56.068;2022-08-01T05:32:43;22.60;;;11.00;;
29634;SDS011;16557;54.762;56.068;2022-08-01T05:35:14;27.10;;;10.15;;
29634;SDS011;16557;54.762;56.068;2022-08-01T05:37:49;25.37;;;10.88;;
29634;SDS011;16557;54.762;56.068;2022-08-01T05:40:19;24.37;;;10.57;;
29634;SDS011;16557;54.762;56.068;2022-08-01T05:42:57;23.18;;;11.20;;
29634;SDS011;16557;54.762;56.068;2022-08-01T05:45:26;31.05;;;12.10;;
29634;SDS011;16557;54.762;56.068;2022-08-01T05:47:56;34.08;;;12.58;;
29634;SDS011;16557;54.762;56.068;2022-08-01T05:50:30;23.00;;;12.25;;
29634;SDS011;16557;54.762;56.068;2022-08-01T05:52:57;23.35;;;11.83;;
29634;SDS011;16557;54.762;56.068;2022-08-01T05:55:29;29.07;;;12.65;;
29634;SDS011;16557;54.762;56.068;2022-08-01T05:58:00;20.62;;;12.60;;
29634;SDS011;16557;54.762;56.068;2022-08-01T06:00:30;24.77;;;12.78;;
29634;SDS011;16557;54.762;56.068;2022-08-01T06:02:59;31.90;;;12.80;;
29634;SDS011;16557;54.762;56.068;2022-08-01T06:05:30;28.90;;;13.78;;
29634;SDS011;16557;54.762;56.068;2022-08-01T06:08:00;25.05;;;11.08;;
29634;SDS011;16557;54.762;56.068;2022-08-01T06:10:29;15.65;;;10.30;;
29634;SDS011;16557;54.762;56.068;2022-08-01T06:13:00;22.95;;;9.70;;
29634;SDS011;16557;54.762;56.068;2022-08-01T06:15:31;19.52;;;11.30;;
29634;SDS011;16557;54.762;56.068;2022-08-01T06:18:02;19.98;;;11.10;;
29634;SDS011;16557;54.762;56.068;2022-08-01T06:20:33;24.30;;;10.82;;
29634;SDS011;16557;54.762;56.068;2022-08-01T06:23:05;25.17;;;14.68;;
29634;SDS011;16557;54.762;56.068;2022-08-01T06:25:35;22.52;;;10.78;;
29634;SDS011;16557;54.762;56.068;2022-08-01T06:28:04;15.35;;;10.63;;
29634;SDS011;16557;54.762;56.068;2022-08-01T06:30:33;14.68;;;11.00;;
29634;SDS011;16557;54.762;56.068;2022-08-01T06:33:02;15.53;;;9.20;;
29634;SDS011;16557;54.762;56.068;2022-08-01T06:35:32;15.38;;;10.48;;
29634;SDS011;16557;54.762;56.068;2022-08-01T06:38:01;10.32;;;7.78;;
29634;SDS011;16557;54.762;56.068;2022-08-01T06:40:31;12.47;;;8.10;;
29634;SDS011;16557;54.762;56.068;2022-08-01T06:43:01;14.35;;;7.42;;
29634;SDS011;16557;54.762;56.068;2022-08-01T06:45:31;14.75;;;8.05;;
29634;SDS011;16557;54.762;56.068;2022-08-01T06:50:32;14.63;;;7.30;;
29634;SDS011;16557;54.762;56.068;2022-08-01T06:53:03;13.10;;;7.55;;
29634;SDS011;16557;54.762;56.068;2022-08-01T06:55:33;15.45;;;7.87;;
29634;SDS011;16557;54.762;56.068;2022-08-01T06:58:02;13.70;;;8.68;;
29634;SDS011;16557;54.762;56.068;2022-08-01T07:00:31;16.17;;;9.10;;
29634;SDS011;16557;54.762;56.068;2022-08-01T07:03:01;12.63;;;8.15;;
29634;SDS011;16557;54.762;56.068;2022-08-01T07:05:30;12.37;;;7.35;;
29634;SDS011;16557;54.762;56.068;2022-08-01T07:08:01;10.40;;;7.05;;
29634;SDS011;16557;54.762;56.068;2022-08-01T07:10:30;14.15;;;8.50;;
29634;SDS011;16557;54.762;56.068;2022-08-01T07:13:00;12.58;;;9.20;;
29634;SDS011;16557;54.762;56.068;2022-08-01T07:15:30;11.30;;;7.78;;
29634;SDS011;16557;54.762;56.068;2022-08-01T07:17:59;16.05;;;8.73;;
29634;SDS011;16557;54.762;56.068;2022-08-01T07:20:30;19.80;;;8.65;;
29634;SDS011;16557;54.762;56.068;2022-08-01T07:23:00;17.27;;;9.13;;
29634;SDS011;16557;54.762;56.068;2022-08-01T07:25:30;19.90;;;9.83;;
29634;SDS011;16557;54.762;56.068;2022-08-01T07:27:59;15.25;;;8.60;;
29634;SDS011;16557;54.762;56.068;2022-08-01T07:30:30;17.50;;;9.40;;
29634;SDS011;16557;54.762;56.068;2022-08-01T07:32:59;16.82;;;9.45;;
29634;SDS011;16557;54.762;56.068;2022-08-01T07:35:30;124.47;;;14.28;;
29634;SDS011;16557;54.762;56.068;2022-08-01T07:38:00;12.07;;;9.15;;
29634;SDS011;16557;54.762;56.068;2022-08-01T07:40:29;14.20;;;7.75;;
29634;SDS011;16557;54.762;56.068;2022-08-01T07:43:00;11.73;;;8.25;;
29634;SDS011;16557;54.762;56.068;2022-08-01T07:45:29;14.23;;;9.13;;
29634;SDS011;16557;54.762;56.068;2022-08-01T07:48:04;17.05;;;8.30;;
29634;SDS011;16557;54.762;56.068;2022-08-01T07:50:37;13.65;;;8.13;;
29634;SDS011;16557;54.762;56.068;2022-08-01T07:53:06;13.95;;;8.33;;
29634;SDS011;16557;54.762;56.068;2022-08-01T07:55:44;14.83;;;8.63;;
29634;SDS011;16557;54.762;56.068;2022-08-01T07:58:09;20.30;;;8.05;;
29634;SDS011;16557;54.762;56.068;2022-08-01T08:00:38;11.68;;;9.50;;
29634;SDS011;16557;54.762;56.068;2022-08-01T08:03:16;13.00;;;9.33;;
29634;SDS011;16557;54.762;56.068;2022-08-01T08:05:48;18.15;;;9.13;;
29634;SDS011;16557;54.762;56.068;2022-08-01T08:08:24;17.87;;;9.18;;
29634;SDS011;16557;54.762;56.068;2022-08-01T08:11:10;20.25;;;9.33;;
29634;SDS011;16557;54.762;56.068;2022-08-01T08:13:43;18.02;;;9.53;;
29634;SDS011;16557;54.762;56.068;2022-08-01T08:16:17;13.95;;;9.63;;
29634;SDS011;16557;54.762;56.068;2022-08-01T08:18:50;12.23;;;9.35;;
29634;SDS011;16557;54.762;56.068;2022-08-01T08:21:22;12.43;;;9.28;;
29634;SDS011;16557;54.762;56.068;2022-08-01T08:24:06;12.47;;;10.43;;
29634;SDS011;16557;54.762;56.068;2022-08-01T08:26:50;17.20;;;10.80;;
29634;SDS011;16557;54.762;56.068;2022-08-01T08:29:32;20.32;;;10.32;;
29634;SDS011;16557;54.762;56.068;2022-08-01T08:32:06;17.23;;;9.85;;
29634;SDS011;16557;54.762;56.068;2022-08-01T08:34:36;14.70;;;9.65;;
29634;SDS011;16557;54.762;56.068;2022-08-01T08:37:05;19.27;;;9.68;;
29634;SDS011;16557;54.762;56.068;2022-08-01T08:39:35;12.90;;;9.30;;
29634;SDS011;16557;54.762;56.068;2022-08-01T08:42:15;13.78;;;9.85;;
29634;SDS011;16557;54.762;56.068;2022-08-01T08:44:44;13.70;;;9.80;;
29634;SDS011;16557;54.762;56.068;2022-08-01T08:47:22;13.98;;;9.15;;
29634;SDS011;16557;54.762;56.068;2022-08-01T08:49:56;16.62;;;10.05;;
29634;SDS011;16557;54.762;56.068;2022-08-01T08:52:28;10.32;;;8.90;;
29634;SDS011;16557;54.762;56.068;2022-08-01T08:57:30;15.40;;;10.72;;
29634;SDS011;16557;54.762;56.068;2022-08-01T09:00:00;17.80;;;10.40;;
29634;SDS011;16557;54.762;56.068;2022-08-01T09:02:32;15.05;;;10.75;;
29634;SDS011;16557;54.762;56.068;2022-08-01T09:05:09;18.23;;;9.93;;
29634;SDS011;16557;54.762;56.068;2022-08-01T09:07:43;13.75;;;9.53;;
29634;SDS011;16557;54.762;56.068;2022-08-01T09:10:16;13.70;;;9.20;;
29634;SDS011;16557;54.762;56.068;2022-08-01T09:13:02;13.38;;;10.43;;
29634;SDS011;16557;54.762;56.068;2022-08-01T09:15:43;12.25;;;9.75;;
29634;SDS011;16557;54.762;56.068;2022-08-01T09:18:29;15.25;;;10.18;;
29634;SDS011;16557;54.762;56.068;2022-08-01T09:23:44;14.25;;;10.90;;
29634;SDS011;16557;54.762;56.068;2022-08-01T09:26:21;21.07;;;12.00;;
29634;SDS011;16557;54.762;56.068;2022-08-01T09:28:51;24.98;;;9.43;;
29634;SDS011;16557;54.762;56.068;2022-08-01T09:31:20;26.45;;;9.43;;
29634;SDS011;16557;54.762;56.068;2022-08-01T09:33:55;24.10;;;8.75;;
29634;SDS011;16557;54.762;56.068;2022-08-01T09:39:17;25.97;;;9.75;;
29634;SDS011;16557;54.762;56.068;2022-08-01T09:41:48;13.88;;;8.85;;
29634;SDS011;16557;54.762;56.068;2022-08-01T09:44:17;47.30;;;12.68;;
29634;SDS011;16557;54.762;56.068;2022-08-01T09:46:51;17.17;;;9.48;;
29634;SDS011;16557;54.762;56.068;2022-08-01T09:49:31;17.07;;;9.70;;
29634;SDS011;16557;54.762;56.068;2022-08-01T09:52:12;22.67;;;11.53;;
29634;SDS011;16557;54.762;56.068;2022-08-01T09:54:43;16.30;;;11.63;;
29634;SDS011;16557;54.762;56.068;2022-08-01T09:57:15;15.93;;;12.00;;
29634;SDS011;16557;54.762;56.068;2022-08-01T09:59:46;15.25;;;11.90;;
29634;SDS011;16557;54.762;56.068;2022-08-01T10:02:27;16.50;;;14.10;;
29634;SDS011;16557;54.762;56.068;2022-08-01T10:05:04;16.07;;;11.50;;
29634;SDS011;16557;54.762;56.068;2022-08-01T10:07:35;16.32;;;12.28;;
29634;SDS011;16557;54.762;56.068;2022-08-01T10:10:10;16.15;;;9.53;;
29634;SDS011;16557;54.762;56.068;2022-08-01T10:12:43;12.20;;;9.53;;
29634;SDS011;16557;54.762;56.068;2022-08-01T10:15:16;13.65;;;10.05;;
29634;SDS011;16557;54.762;56.068;2022-08-01T10:18:01;11.78;;;9.85;;
29634;SDS011;16557;54.762;56.068;2022-08-01T10:20:27;18.67;;;11.03;;
29634;SDS011;16557;54.762;56.068;2022-08-01T10:22:59;15.08;;;11.65;;
29634;SDS011;16557;54.762;56.068;2022-08-01T10:25:33;17.17;;;11.65;;
29634;SDS011;16557;54.762;56.068;2022-08-01T10:28:05;16.23;;;13.18;;
29634;SDS011;16557;54.762;56.068;2022-08-01T10:30:36;17.03;;;13.97;;
29634;SDS011;16557;54.762;56.068;2022-08-01T10:33:06;15.85;;;11.73;;
29634;SDS011;16557;54.762;56.068;2022-08-01T10:35:36;14.35;;;11.95;;
29634;SDS011;16557;54.762;56.068;2022-08-01T10:38:06;18.65;;;12.15;;
29634;SDS011;16557;54.762;56.068;2022-08-01T10:40:36;17.20;;;12.18;;
29634;SDS011;16557;54.762;56.068;2022-08-01T10:43:09;14.58;;;12.15;;
29634;SDS011;16557;54.762;56.068;2022-08-01T10:45:39;16.37;;;11.33;;
29634;SDS011;16557;54.762;56.068;2022-08-01T10:48:14;17.90;;;11.08;;
29634;SDS011;16557;54.762;56.068;2022-08-01T10:50:45;18.42;;;11.20;;
29634;SDS011;16557;54.762;56.068;2022-08-01T10:53:17;17.65;;;11.15;;
29634;SDS011;16557;54.762;56.068;2022-08-01T10:58:32;17.45;;;11.83;;
29634;SDS011;16557;54.762;56.068;2022-08-01T11:09:27;15.32;;;11.50;;
29634;SDS011;16557;54.762;56.068;2022-08-01T11:14:32;22.27;;;19.20;;
29634;SDS011;16557;54.762;56.068;2022-08-01T11:30:48;17.07;;;12.20;;
29634;SDS011;16557;54.762;56.068;2022-08-01T11:33:19;19.75;;;12.35;;
29634;SDS011;16557;54.762;56.068;2022-08-01T11:41:36;19.92;;;13.85;;
29634;SDS011;16557;54.762;56.068;2022-08-01T11:44:06;15.08;;;12.68;;
29634;SDS011;16557;54.762;56.068;2022-08-01T11:52:12;19.40;;;11.85;;
29634;SDS011;16557;54.762;56.068;2022-08-01T11:54:47;19.20;;;13.75;;
29634;SDS011;16557;54.762;56.068;2022-08-01T11:57:22;14.10;;;11.75;;
29634;SDS011;16557;54.762;56.068;2022-08-01T11:59:57;20.90;;;12.85;;
29634;SDS011;16557;54.762;56.068;2022-08-01T12:02:28;19.37;;;12.10;;
29634;SDS011;16557;54.762;56.068;2022-08-01T12:05:08;14.95;;;11.73;;
29634;SDS011;16557;54.762;56.068;2022-08-01T12:07:49;22.58;;;12.18;;
29634;SDS011;16557;54.762;56.068;2022-08-01T12:10:15;21.17;;;12.07;;
29634;SDS011;16557;54.762;56.068;2022-08-01T12:12:51;23.75;;;14.07;;
29634;SDS011;16557;54.762;56.068;2022-08-01T12:15:29;15.70;;;12.98;;
29634;SDS011;16557;54.762;56.068;2022-08-01T12:19:34;16.75;;;13.50;;
29634;SDS011;16557;54.762;56.068;2022-08-01T12:22:07;22.65;;;12.63;;
29634;SDS011;16557;54.762;56.068;2022-08-01T12:24:40;29.05;;;13.48;;
29634;SDS011;16557;54.762;56.068;2022-08-01T12:27:10;20.97;;;11.57;;
29634;SDS011;16557;54.762;56.068;2022-08-01T12:29:40;22.45;;;12.37;;
29634;SDS011;16557;54.762;56.068;2022-08-01T12:32:30;15.23;;;12.53;;
29634;SDS011;16557;54.762;56.068;2022-08-01T12:35:03;17.60;;;12.88;;
29634;SDS011;16557;54.762;56.068;2022-08-01T12:37:42;15.45;;;11.95;;
29634;SDS011;16557;54.762;56.068;2022-08-01T12:40:21;15.18;;;11.12;;
29634;SDS011;16557;54.762;56.068;2022-08-01T12:42:49;17.77;;;12.30;;
29634;SDS011;16557;54.762;56.068;2022-08-01T12:45:25;16.02;;;12.15;;
29634;SDS011;16557;54.762;56.068;2022-08-01T12:47:53;14.63;;;12.15;;
29634;SDS011;16557;54.762;56.068;2022-08-01T12:50:26;13.35;;;11.25;;
29634;SDS011;16557;54.762;56.068;2022-08-01T12:52:58;15.65;;;12.47;;
29634;SDS011;16557;54.762;56.068;2022-08-01T12:55:28;15.80;;;12.25;;
29634;SDS011;16557;54.762;56.068;2022-08-01T12:58:04;21.52;;;14.20;;
29634;SDS011;16557;54.762;56.068;2022-08-01T13:00:35;19.85;;;13.78;;
29634;SDS011;16557;54.762;56.068;2022-08-01T13:03:13;17.27;;;13.65;;
29634;SDS011;16557;54.762;56.068;2022-08-01T13:05:48;24.77;;;14.63;;
29634;SDS011;16557;54.762;56.068;2022-08-01T13:08:31;18.62;;;15.40;;
29634;SDS011;16557;54.762;56.068;2022-08-01T13:11:06;17.40;;;12.93;;
29634;SDS011;16557;54.762;56.068;2022-08-01T13:13:47;19.37;;;11.95;;
29634;SDS011;16557;54.762;56.068;2022-08-01T13:16:18;17.23;;;12.35;;
29634;SDS011;16557;54.762;56.068;2022-08-01T13:18:49;15.85;;;12.10;;
29634;SDS011;16557;54.762;56.068;2022-08-01T13:21:26;13.62;;;12.23;;
29634;SDS011;16557;54.762;56.068;2022-08-01T13:24:00;17.30;;;12.00;;
29634;SDS011;16557;54.762;56.068;2022-08-01T13:26:50;15.35;;;12.82;;
29634;SDS011;16557;54.762;56.068;2022-08-01T13:29:17;16.10;;;11.90;;
29634;SDS011;16557;54.762;56.068;2022-08-01T13:31:48;15.17;;;13.40;;
29634;SDS011;16557;54.762;56.068;2022-08-01T13:34:18;18.20;;;13.00;;
29634;SDS011;16557;54.762;56.068;2022-08-01T13:39:29;20.77;;;12.85;;
29634;SDS011;16557;54.762;56.068;2022-08-01T13:42:08;18.52;;;13.98;;
29634;SDS011;16557;54.762;56.068;2022-08-01T13:44:40;20.52;;;14.18;;
29634;SDS011;16557;54.762;56.068;2022-08-01T13:47:11;20.68;;;14.35;;
29634;SDS011;16557;54.762;56.068;2022-08-01T13:49:42;16.65;;;13.35;;
29634;SDS011;16557;54.762;56.068;2022-08-01T13:52:11;17.10;;;12.30;;
29634;SDS011;16557;54.762;56.068;2022-08-01T13:54:40;20.43;;;14.10;;
29634;SDS011;16557;54.762;56.068;2022-08-01T13:57:10;16.32;;;13.30;;
29634;SDS011;16557;54.762;56.068;2022-08-01T13:59:39;18.67;;;12.98;;
29634;SDS011;16557;54.762;56.068;2022-08-01T14:02:08;14.60;;;13.00;;
29634;SDS011;16557;54.762;56.068;2022-08-01T14:04:38;19.87;;;13.20;;
29634;SDS011;16557;54.762;56.068;2022-08-01T14:07:07;16.62;;;12.93;;
29634;SDS011;16557;54.762;56.068;2022-08-01T14:09:41;17.00;;;12.40;;
29634;SDS011;16557;54.762;56.068;2022-08-01T14:12:11;16.02;;;12.20;;
29634;SDS011;16557;54.762;56.068;2022-08-01T14:14:41;15.93;;;11.88;;
29634;SDS011;16557;54.762;56.068;2022-08-01T14:17:10;15.90;;;11.73;;
29634;SDS011;16557;54.762;56.068;2022-08-01T14:19:43;17.65;;;11.97;;
29634;SDS011;16557;54.762;56.068;2022-08-01T14:22:12;17.00;;;11.75;;
29634;SDS011;16557;54.762;56.068;2022-08-01T14:24:42;28.95;;;14.70;;
29634;SDS011;16557;54.762;56.068;2022-08-01T14:27:13;19.27;;;13.85;;
29634;SDS011;16557;54.762;56.068;2022-08-01T14:29:42;14.25;;;12.70;;
29634;SDS011;16557;54.762;56.068;2022-08-01T14:32:13;30.23;;;14.33;;
29634;SDS011;16557;54.762;56.068;2022-08-01T14:34:42;20.50;;;14.10;;
29634;SDS011;16557;54.762;56.068;2022-08-01T14:37:12;23.18;;;15.45;;
29634;SDS011;16557;54.762;56.068;2022-08-01T14:39:41;17.60;;;13.15;;
29634;SDS011;16557;54.762;56.068;2022-08-01T14:44:41;19.25;;;12.85;;
29634;SDS011;16557;54.762;56.068;2022-08-01T14:47:11;20.08;;;13.08;;
29634;SDS011;16557;54.762;56.068;2022-08-01T14:49:40;18.23;;;13.75;;
29634;SDS011;16557;54.762;56.068;2022-08-01T14:52:09;21.93;;;15.28;;
29634;SDS011;16557;54.762;56.068;2022-08-01T14:54:38;20.95;;;15.23;;
29634;SDS011;16557;54.762;56.068;2022-08-01T14:57:08;26.10;;;17.17;;
29634;SDS011;16557;54.762;56.068;2022-08-01T14:59:37;18.23;;;14.38;;
29634;SDS011;16557;54.762;56.068;2022-08-01T15:02:06;20.25;;;14.45;;
29634;SDS011;16557;54.762;56.068;2022-08-01T15:04:37;22.98;;;14.00;;
29634;SDS011;16557;54.762;56.068;2022-08-01T15:07:06;20.97;;;13.30;;
29634;SDS011;16557;54.762;56.068;2022-08-01T15:09:35;25.80;;;14.07;;
29634;SDS011;16557;54.762;56.068;2022-08-01T15:12:05;18.48;;;12.85;;
29634;SDS011;16557;54.762;56.068;2022-08-01T15:14:35;22.85;;;13.13;;
29634;SDS011;16557;54.762;56.068;2022-08-01T15:19:49;24.83;;;13.80;;
29634;SDS011;16557;54.762;56.068;2022-08-01T15:22:20;20.00;;;12.85;;
29634;SDS011;16557;54.762;56.068;2022-08-01T15:24:53;20.62;;;13.00;;
29634;SDS011;16557;54.762;56.068;2022-08-01T15:27:23;17.67;;;13.28;;
29634;SDS011;16557;54.762;56.068;2022-08-01T15:29:54;20.32;;;12.78;;
29634;SDS011;16557;54.762;56.068;2022-08-01T15:32:23;20.68;;;12.18;;
29634;SDS011;16557;54.762;56.068;2022-08-01T15:34:52;22.67;;;17.05;;
29634;SDS011;16557;54.762;56.068;2022-08-01T15:37:22;17.95;;;13.22;;
29634;SDS011;16557;54.762;56.068;2022-08-01T15:39:51;22.90;;;13.75;;
29634;SDS011;16557;54.762;56.068;2022-08-01T15:42:21;19.62;;;12.80;;
29634;SDS011;16557;54.762;56.068;2022-08-01T15:44:50;19.30;;;12.80;;
29634;SDS011;16557;54.762;56.068;2022-08-01T15:47:19;16.77;;;12.80;;